Terminal Aerodrome Forecast
Issued by NWS Sioux Falls, SD

Home | Current Version | Previous Version | Text Only | Print | Product List | Glossary Off
Versions: 1 2 3 4 5 6 7 8 9 10 11 12 13 14 15

917
FTUS43 KFSD 221720
TAFHON
TAF
KHON 221720Z 2218/2318 33012G18KT P6SM SCT250
     FM230000 36012KT P6SM BKN020
     FM230200 35010KT P6SM BKN015
     FM231100 02010KT P6SM OVC015=

USA.gov is the U.S. government's official web portal to all federal, state and local government web resources and services.